Anton, Texas
Current Conditions -  °F | °C
As of 7:53 AM on Tuesday 27 Jan 2015 (Local Time) from KLBB Reporting Station
Broken Clouds Broken Clouds  
Wind Chill: -2°   Ceiling: 30000
Heat Index:   Visibility: 10mi
Dew Point: -1°   Wind: 7mph
Humidity: 89%   Direction: 290°WNW
Pressure: 30.24"   Gusts: NA
Location:  33.81°N, 102.16°W
Report Text: KLBB 271353Z 29006KT 10SM FEW250 BKN300 01/M01 A3024 RMK AO2 SLP236 T00111006
Loading
Personal Weather Stations






























Interactive Weather Map New forecast layout! Learn more

10-Day Weather Forecast

Advertisements
Track Severe Weather on mobile